Time;durP1;ratioP1;P1;durP2;ratioP2;P2;SDS_P1;SDS_P2;PMS_P1;PMS_P2;Temp;Humidity;BMP_temperature;BMP_pressure;BME280_temperature;BME280_humidity;BME280_pressure;Samples;Min_cycle;Max_cycle;Signal;HPM_P1;HPM_P2
2022/09/17 00:00:14;;;;;;;13.80;2.15;;;;;;;16.70;59.03;101239.50;5043633;28;20036;-69
2022/09/17 00:02:40;;;;;;;16.48;2.45;;;;;;;16.83;58.68;101236.38;5046093;28;20434;-69
2022/09/17 00:05:06;;;;;;;25.67;4.03;;;;;;;16.96;58.65;101233.22;5071109;28;20044;-70
2022/09/17 00:07:32;;;;;;;13.95;2.25;;;;;;;16.77;58.11;101241.97;5072100;28;20036;-70
2022/09/17 00:09:57;;;;;;;12.32;2.10;;;;;;;16.85;58.79;101236.09;5071475;28;20549;-70
2022/09/17 00:12:22;;;;;;;18.70;2.17;;;;;;;17.14;57.09;101238.28;5071407;28;20032;-68
2022/09/17 00:14:48;;;;;;;19.70;2.85;;;;;;;16.78;59.21;101227.34;5071171;28;20123;-71
2022/09/17 00:17:13;;;;;;;16.35;3.38;;;;;;;17.08;56.86;101243.94;5071358;28;20032;-70
2022/09/17 00:19:39;;;;;;;15.20;1.77;;;;;;;16.59;58.26;101252.13;5072192;28;20025;-70
2022/09/17 00:22:04;;;;;;;14.75;2.47;;;;;;;16.50;59.29;101263.69;5071464;28;20032;-71
2022/09/17 00:24:30;;;;;;;15.82;2.75;;;;;;;16.44;59.22;101284.47;5071239;28;20052;-71
2022/09/17 00:26:55;;;;;;;17.00;2.72;;;;;;;16.17;60.86;101294.44;5071299;28;20028;-72
2022/09/17 00:29:20;;;;;;;15.13;2.22;;;;;;;15.92;62.87;101264.25;5071417;28;20074;-70
2022/09/17 00:31:46;;;;;;;20.88;2.90;;;;;;;16.40;62.28;101249.97;5071223;28;20052;-69
2022/09/17 00:34:11;;;;;;;16.00;2.38;;;;;;;16.07;60.98;101256.34;5071346;28;20048;-70
2022/09/17 00:36:38;;;;;;;15.23;2.28;;;;;;;15.74;62.80;101248.28;5073809;28;20140;-71
2022/09/17 00:39:05;;;;;;;9.60;1.73;;;;;;;16.28;60.96;101246.56;5075334;28;20120;-70
2022/09/17 00:41:33;;;;;;;12.13;2.38;;;;;;;16.41;60.47;101257.84;5075144;28;20524;-70
2022/09/17 00:44:01;;;;;;;18.85;2.20;;;;;;;16.12;60.95;101259.09;5075163;28;20028;-70
2022/09/17 00:46:39;;;;;;;15.32;3.78;;;;;;;16.69;59.20;101246.81;5056624;28;20048;-70
2022/09/17 00:49:27;;;;;;;15.18;2.22;;;;;;;16.62;59.82;101243.50;5074985;28;20032;-70
2022/09/17 00:52:01;;;;;;;13.00;2.58;;;;;;;16.55;60.28;101239.31;5074673;28;20051;-71
2022/09/17 00:54:27;;;;;;;17.60;2.25;;;;;;;16.46;61.52;101254.38;5074899;28;20055;-71
2022/09/17 00:56:52;;;;;;;14.75;2.30;;;;;;;16.72;60.03;101252.81;5074760;28;20047;-72
2022/09/17 00:59:21;;;;;;;17.95;2.55;;;;;;;16.83;60.19;101246.38;5074921;28;20044;-72
2022/09/17 01:01:47;;;;;;;17.77;1.95;;;;;;;16.58;60.40;101253.22;5074966;28;20032;-71
2022/09/17 01:04:21;;;;;;;15.45;3.55;;;;;;;17.10;58.97;101245.31;5074467;28;20033;-70
2022/09/17 01:07:15;;;;;;;23.08;2.15;;;;;;;17.04;59.02;101248.25;5074362;28;20029;-70
2022/09/17 01:10:05;;;;;;;19.60;2.20;;;;;;;17.15;57.95;101249.97;5074399;28;20029;-70
2022/09/17 01:12:52;;;;;;;11.68;2.85;;;;;;;16.86;58.28;101237.75;5074712;28;20048;-70
2022/09/17 01:15:32;;;;;;;18.92;2.40;;;;;;;16.64;59.18;101254.91;5071344;28;20048;-69
2022/09/17 01:18:23;;;;;;;14.05;2.67;;;;;;;16.73;59.32;101255.25;5054209;28;20041;-70
2022/09/17 01:21:22;;;;;;;14.32;3.72;;;;;;;16.60;59.65;101258.38;5062287;28;20029;-70
2022/09/17 01:24:12;;;;;;;16.17;2.15;;;;;;;16.82;59.29;101252.91;5074357;28;20036;-71
2022/09/17 01:26:56;;;;;;;15.13;3.07;;;;;;;16.39;60.03;101264.63;5074276;28;20044;-70
2022/09/17 01:29:31;;;;;;;21.60;2.47;;;;;;;16.70;59.14;101247.63;5074312;28;20430;-70
2022/09/17 01:32:14;;;;;;;13.93;2.67;;;;;;;16.01;61.24;101262.78;5073813;28;20081;-69
2022/09/17 01:34:42;;;;;;;19.17;3.33;;;;;;;15.87;60.76;101261.47;5074911;28;20476;-70
2022/09/17 01:37:14;;;;;;;17.70;2.70;;;;;;;16.24;59.16;101258.97;5074015;28;20366;-71
2022/09/17 01:39:53;;;;;;;24.40;3.35;;;;;;;16.77;58.68;101266.41;5074361;28;20044;-69
2022/09/17 01:42:26;;;;;;;11.02;3.25;;;;;;;16.74;58.20;101277.78;5074358;28;20064;-70
2022/09/17 01:45:08;;;;;;;23.02;2.60;;;;;;;16.58;58.12;101285.78;5073770;28;20041;-68
2022/09/17 01:47:37;;;;;;;16.13;1.88;;;;;;;16.01;59.69;101283.63;5072979;28;20041;-71
2022/09/17 01:50:10;;;;;;;18.83;1.90;;;;;;;16.93;57.80;101271.75;5073681;28;20039;-68
2022/09/17 01:52:39;;;;;;;18.20;2.15;;;;;;;16.41;57.89;101282.25;5074304;28;20040;-70
2022/09/17 01:55:10;;;;;;;17.98;2.42;;;;;;;16.01;58.99;101294.47;5073718;28;20039;-69
2022/09/17 01:57:38;;;;;;;;;;;;;;;16.16;58.50;101290.06;5074115;28;20060;-70
2022/09/17 02:00:06;;;;;;;13.77;1.80;;;;;;;16.64;57.19;101278.50;5073593;28;19916;-70
2022/09/17 02:02:55;;;;;;;11.10;2.80;;;;;;;16.51;57.70;101279.69;5073538;28;20037;-69
2022/09/17 02:05:34;;;;;;;10.75;1.35;;;;;;;16.08;59.07;101285.09;5073571;28;20044;-70
2022/09/17 02:08:08;;;;;;;12.13;2.22;;;;;;;16.26;58.10;101287.50;5073451;28;20113;-71
2022/09/17 02:10:41;;;;;;;14.93;1.67;;;;;;;15.94;59.06;101283.78;5073631;28;20032;-70
2022/09/17 02:13:18;;;;;;;13.57;1.95;;;;;;;16.26;58.57;101283.97;5073279;28;20396;-70
2022/09/17 02:15:52;;;;;;;13.45;2.22;;;;;;;16.53;57.09;101287.59;5067074;28;20120;-70
2022/09/17 02:18:38;;;;;;;9.93;2.05;;;;;;;16.32;57.34;101296.53;5071215;28;20523;-68
2022/09/17 02:21:10;;;;;;;13.43;2.25;;;;;;;16.57;57.21;101292.25;5055125;28;20369;-71
2022/09/17 02:23:46;;;;;;;18.15;3.03;;;;;;;16.33;57.95;101292.75;5073497;28;20040;-69
2022/09/17 02:26:18;;;;;;;15.02;2.42;;;;;;;16.52;56.84;101296.81;5073175;28;20132;-71
2022/09/17 02:28:50;;;;;;;12.60;2.22;;;;;;;16.66;57.13;101293.47;5073673;28;20299;-70
2022/09/17 02:31:16;;;;;;;14.57;3.45;;;;;;;16.61;57.62;101296.09;5070073;28;20048;-68
2022/09/17 02:33:47;;;;;;;13.00;2.15;;;;;;;16.49;57.76;101302.75;5053044;28;20029;-71
2022/09/17 02:36:12;;;;;;;;;;;;;;;16.12;58.36;101302.50;5053553;28;20130;-72
2022/09/17 02:38:42;;;;;;;14.25;2.50;;;;;;;16.04;59.12;101297.50;5052680;28;20075;-69
2022/09/17 02:41:14;;;;;;;23.40;2.75;;;;;;;16.02;59.54;101288.00;5052865;28;20087;-70
2022/09/17 02:43:46;;;;;;;13.95;1.95;;;;;;;16.85;56.48;101288.50;5064937;28;20109;-71
2022/09/17 02:46:34;;;;;;;11.48;1.52;;;;;;;16.14;58.95;101288.69;5072337;28;20037;-70
2022/09/17 02:49:14;;;;;;;11.30;2.13;;;;;;;16.55;57.74;101294.41;5072893;28;20040;-70
2022/09/17 02:52:12;;;;;;;12.98;1.52;;;;;;;16.29;58.55;101292.44;5072379;28;20045;-69
2022/09/17 02:55:03;;;;;;;8.93;1.60;;;;;;;16.11;58.26;101287.31;5072595;28;20064;-70
2022/09/17 02:57:36;;;;;;;8.13;1.30;;;;;;;16.51;57.52;101281.63;5009899;28;20050;-70
2022/09/17 03:00:19;;;;;;;8.35;1.45;;;;;;;16.58;57.33;101291.19;5009467;28;20376;-70
2022/09/17 03:02:51;;;;;;;6.82;1.63;;;;;;;16.07;58.55;101291.59;5010009;28;20057;-71
2022/09/17 03:05:19;;;;;;;13.35;1.95;;;;;;;16.31;57.63;101289.47;5010122;28;20077;-71
2022/09/17 03:07:44;;;;;;;17.33;2.15;;;;;;;16.23;57.83;101290.72;5010686;28;20067;-70
2022/09/17 03:10:10;;;;;;;8.55;1.25;;;;;;;16.29;58.15;101295.16;4996186;28;20062;-72
2022/09/17 03:12:36;;;;;;;8.98;1.33;;;;;;;15.75;59.24;101307.66;4991405;28;20093;-71
2022/09/17 03:15:02;;;;;;;12.07;1.35;;;;;;;15.70;59.57;101329.22;5029146;28;20041;-69
2022/09/17 03:17:28;;;;;;;9.02;1.52;;;;;;;15.13;61.13;101324.16;5009747;28;20808;-70
2022/09/17 03:19:54;;;;;;;9.90;1.23;;;;;;;14.74;63.07;101336.69;5010412;28;20034;-73
2022/09/17 03:22:19;;;;;;;6.50;0.95;;;;;;;14.75;62.61;101303.97;5010486;28;20046;-71
2022/09/17 03:24:44;;;;;;;7.00;1.13;;;;;;;15.57;60.43;101304.38;5010103;28;20046;-72
2022/09/17 03:27:10;;;;;;;11.77;1.60;;;;;;;15.78;60.29;101285.47;5010234;28;20038;-72
2022/09/17 03:29:35;;;;;;;13.77;2.35;;;;;;;16.09;59.07;101277.78;5009736;28;20077;-71
2022/09/17 03:32:01;;;;;;;8.40;1.27;;;;;;;16.12;58.03;101278.09;5009516;28;20044;-72
2022/09/17 03:34:26;;;;;;;5.45;1.23;;;;;;;16.24;58.36;101281.50;5028996;28;20115;-71
2022/09/17 03:36:51;;;;;;;8.75;1.40;;;;;;;16.25;58.38;101285.06;5050667;28;20041;-70
2022/09/17 03:39:17;;;;;;;5.20;0.80;;;;;;;16.23;58.64;101277.16;5050954;28;20493;-70
2022/09/17 03:41:42;;;;;;;11.68;2.38;;;;;;;15.84;59.39;101283.69;5051558;28;20052;-71
2022/09/17 03:44:09;;;;;;;9.70;1.30;;;;;;;16.44;57.64;101286.38;5051186;28;20068;-71
2022/09/17 03:46:34;;;;;;;8.38;1.30;;;;;;;16.16;59.16;101294.66;5051893;28;20116;-72
2022/09/17 03:49:01;;;;;;;6.50;1.40;;;;;;;16.67;57.29;101297.81;5051268;28;20072;-70
2022/09/17 03:51:26;;;;;;;11.60;1.52;;;;;;;16.57;57.52;101300.41;5051091;28;20041;-72
2022/09/17 03:53:52;;;;;;;9.77;1.42;;;;;;;16.68;57.16;101299.47;5051094;28;20074;-71
2022/09/17 03:56:17;;;;;;;9.00;1.67;;;;;;;16.60;57.37;101307.22;5050992;28;20083;-70
2022/09/17 03:58:43;;;;;;;5.63;1.42;;;;;;;16.71;56.87;101317.09;5051372;28;20062;-70
2022/09/17 04:01:08;;;;;;;9.60;1.63;;;;;;;16.75;56.96;101318.25;5048867;28;20150;-71
2022/09/17 04:03:33;;;;;;;5.75;1.73;;;;;;;16.83;57.21;101320.50;5050827;28;20067;-72
2022/09/17 04:05:59;;;;;;;7.60;2.15;;;;;;;16.75;57.47;101322.84;5051207;28;20091;-71
2022/09/17 04:08:24;;;;;;;10.20;1.20;;;;;;;16.99;57.00;101326.91;5051302;28;20029;-69
2022/09/17 04:10:52;;;;;;;14.43;1.95;;;;;;;16.55;58.10;101313.41;5048500;28;20035;-70
2022/09/17 04:13:18;;;;;;;15.48;1.98;;;;;;;16.89;57.70;101319.50;5055362;28;20041;-73
2022/09/17 04:15:45;;;;;;;10.02;1.63;;;;;;;16.41;58.35;101311.31;5055327;28;20040;-70
2022/09/17 04:18:11;;;;;;;11.43;1.52;;;;;;;16.76;58.02;101309.03;5055447;28;20040;-70
2022/09/17 04:20:36;;;;;;;14.15;1.95;;;;;;;16.28;58.89;101301.63;5055744;28;20493;-69
2022/09/17 04:23:02;;;;;;;14.02;2.97;;;;;;;16.54;58.49;101309.06;5055162;28;20233;-72
2022/09/17 04:25:28;;;;;;;13.52;1.85;;;;;;;16.84;57.38;101315.91;5055771;28;20033;-70
2022/09/17 04:27:53;;;;;;;12.32;1.75;;;;;;;16.92;57.77;101316.28;5055021;28;20164;-71
2022/09/17 04:30:19;;;;;;;11.40;2.30;;;;;;;16.79;57.73;101307.69;5062018;28;20389;-70
2022/09/17 04:32:45;;;;;;;12.00;1.92;;;;;;;16.72;57.54;101307.91;5074750;28;20044;-72
2022/09/17 04:35:10;;;;;;;13.60;1.65;;;;;;;16.73;56.88;101306.03;5075272;28;20553;-71
2022/09/17 04:37:36;;;;;;;11.05;2.42;;;;;;;16.69;57.33;101305.69;5075675;28;20055;-70
2022/09/17 04:40:02;;;;;;;19.90;2.20;;;;;;;17.00;56.41;101302.22;5075034;28;20527;-70
2022/09/17 04:42:28;;;;;;;18.02;2.47;;;;;;;16.89;56.50;101303.19;5075165;28;20044;-70
2022/09/17 04:44:53;;;;;;;11.18;1.80;;;;;;;16.86;56.78;101308.34;5074874;28;20037;-71
2022/09/17 04:47:18;;;;;;;10.85;2.03;;;;;;;16.69;57.42;101311.94;5074248;28;20040;-70
2022/09/17 04:49:44;;;;;;;24.13;3.80;;;;;;;16.32;57.90;101304.66;5075277;28;20066;-71
2022/09/17 04:52:10;;;;;;;19.00;4.72;;;;;;;16.35;58.59;101306.88;5074915;28;20132;-70
2022/09/17 04:54:35;;;;;;;13.70;2.58;;;;;;;16.43;58.00;101309.16;5074804;28;20097;-70
2022/09/17 04:57:00;;;;;;;17.20;3.53;;;;;;;15.55;59.41;101310.03;5074578;28;20040;-70
2022/09/17 04:59:26;;;;;;;18.40;2.38;;;;;;;15.62;59.96;101318.00;5074620;28;20529;-69
2022/09/17 05:01:51;;;;;;;16.65;3.20;;;;;;;15.99;59.06;101313.69;5075107;28;20128;-71
2022/09/17 05:04:16;;;;;;;13.38;2.30;;;;;;;15.68;59.87;101322.44;5074455;28;20032;-70
2022/09/17 05:06:42;;;;;;;13.70;2.28;;;;;;;16.01;58.47;101322.41;5074511;28;20037;-70
2022/09/17 05:09:07;;;;;;;19.67;2.33;;;;;;;16.13;58.37;101322.31;5074983;28;20163;-71
2022/09/17 05:11:33;;;;;;;14.85;2.05;;;;;;;16.11;57.77;101327.16;5074150;28;20124;-71
2022/09/17 05:13:58;;;;;;;14.70;1.83;;;;;;;16.14;57.71;101323.94;5074344;28;20039;-70
2022/09/17 05:16:23;;;;;;;13.18;1.63;;;;;;;16.20;57.75;101331.06;5056057;28;20044;-70
2022/09/17 05:18:50;;;;;;;14.70;2.10;;;;;;;15.77;58.43;101326.38;5074228;28;20134;-69
2022/09/17 05:21:16;;;;;;;21.45;3.10;;;;;;;15.89;58.40;101324.41;5074234;28;20544;-72
2022/09/17 05:23:41;;;;;;;13.40;2.65;;;;;;;15.87;57.41;101326.53;5073072;28;20052;-71
2022/09/17 05:26:07;;;;;;;18.83;2.67;;;;;;;15.85;58.26;101336.78;5074029;28;20437;-69
2022/09/17 05:28:33;;;;;;;11.85;1.75;;;;;;;15.74;57.82;101335.00;5074667;28;20040;-70
2022/09/17 05:30:59;;;;;;;16.05;3.72;;;;;;;15.67;58.51;101334.34;5055748;28;20062;-71
2022/09/17 05:33:24;;;;;;;14.90;1.90;;;;;;;16.09;57.57;101334.72;5053957;28;20045;-70
2022/09/17 05:35:50;;;;;;;13.52;1.50;;;;;;;16.01;56.89;101332.44;5053947;28;20036;-71
2022/09/17 05:38:17;;;;;;;16.42;1.65;;;;;;;15.61;57.96;101349.69;5053773;28;20044;-71
2022/09/17 05:40:43;;;;;;;10.25;2.25;;;;;;;15.95;56.60;101358.63;5054618;28;20037;-70
2022/09/17 05:43:08;;;;;;;7.72;1.45;;;;;;;15.79;57.33;101362.16;5053754;28;20394;-70
2022/09/17 05:45:36;;;;;;;10.70;1.52;;;;;;;15.63;57.57;101349.44;5035640;28;20060;-70
2022/09/17 05:48:04;;;;;;;7.80;1.90;;;;;;;16.20;56.82;101344.63;5053753;28;20381;-71
2022/09/17 05:50:30;;;;;;;23.35;1.90;;;;;;;15.96;56.04;101356.75;5059358;28;20052;-70
2022/09/17 05:52:55;;;;;;;8.95;1.25;;;;;;;15.96;56.80;101348.63;5073825;28;20353;-71
2022/09/17 05:55:22;;;;;;;8.55;1.55;;;;;;;15.74;57.64;101354.78;5074195;28;20113;-72
2022/09/17 05:57:49;;;;;;;9.95;1.27;;;;;;;16.00;57.44;101356.00;5073685;28;20041;-72
2022/09/17 06:00:15;;;;;;;6.55;1.77;;;;;;;16.08;56.85;101344.72;5073388;28;20068;-70
2022/09/17 06:02:40;;;;;;;8.57;1.40;;;;;;;15.54;57.77;101354.47;5073292;28;20041;-71
2022/09/17 06:05:06;;;;;;;12.25;0.93;;;;;;;16.01;56.52;101352.22;5073098;28;20433;-69
2022/09/17 06:07:34;;;;;;;9.63;1.30;;;;;;;15.98;57.35;101360.03;5073678;28;20461;-71
2022/09/17 06:10:00;;;;;;;8.15;1.35;;;;;;;16.34;56.54;101359.47;5073144;28;20037;-71
2022/09/17 06:12:25;;;;;;;6.13;1.00;;;;;;;16.58;55.73;101369.06;5073506;28;20078;-70
2022/09/17 06:14:50;;;;;;;5.95;1.13;;;;;;;16.57;55.59;101367.41;5055591;28;20060;-70
2022/09/17 06:17:16;;;;;;;9.80;1.38;;;;;;;16.44;56.29;101373.19;5073430;28;20040;-72
2022/09/17 06:19:41;;;;;;;3.17;0.80;;;;;;;16.84;54.86;101370.19;5073578;28;20404;-70
2022/09/17 06:22:06;;;;;;;10.75;1.50;;;;;;;16.62;56.00;101368.31;5072752;28;20063;-70
2022/09/17 06:24:32;;;;;;;4.40;1.05;;;;;;;16.21;57.05;101371.50;5073578;28;20517;-71
2022/09/17 06:26:57;;;;;;;7.75;1.42;;;;;;;16.40;57.06;101382.88;5073424;28;20029;-68
2022/09/17 06:29:23;;;;;;;8.00;1.30;;;;;;;16.32;57.03;101377.88;5055008;28;20055;-72
2022/09/17 06:31:48;;;;;;;12.23;2.13;;;;;;;16.38;57.60;101374.19;5072370;28;20063;-69
2022/09/17 06:34:14;;;;;;;12.15;1.73;;;;;;;16.49;57.04;101371.38;5072458;28;20029;-71
2022/09/17 06:36:39;;;;;;;11.20;1.35;;;;;;;16.72;55.41;101385.78;5072743;28;20040;-71
2022/09/17 06:39:05;;;;;;;5.40;1.40;;;;;;;16.68;56.55;101380.06;5072483;28;20052;-71
2022/09/17 06:41:31;;;;;;;11.05;2.42;;;;;;;16.53;55.52;101385.25;5072866;28;20060;-71
2022/09/17 06:43:57;;;;;;;12.93;2.75;;;;;;;16.92;56.18;101386.03;5054197;28;20507;-69
2022/09/17 06:46:23;;;;;;;4.18;1.08;;;;;;;17.06;56.29;101379.16;5054629;28;20041;-70
2022/09/17 06:48:48;;;;;;;7.95;1.33;;;;;;;16.87;55.79;101392.22;5072359;28;20075;-70
2022/09/17 06:51:13;;;;;;;14.07;3.00;;;;;;;16.59;56.26;101384.25;5053409;28;20102;-70
2022/09/17 06:53:39;;;;;;;6.68;1.20;;;;;;;17.33;54.58;101382.69;5072507;28;20431;-71
2022/09/17 06:56:07;;;;;;;12.65;1.38;;;;;;;17.21;54.64;101377.41;5072378;28;20091;-72
2022/09/17 06:58:35;;;;;;;5.90;1.20;;;;;;;16.80;55.85;101382.63;5073201;28;20032;-73
2022/09/17 07:01:02;;;;;;;8.30;1.15;;;;;;;16.20;57.61;101383.41;5072622;28;20049;-70
2022/09/17 07:03:28;;;;;;;7.20;1.35;;;;;;;16.70;57.75;101383.34;5072198;28;20092;-70
2022/09/17 07:05:54;;;;;;;6.35;1.00;;;;;;;16.88;56.49;101383.03;5072273;28;20122;-71
2022/09/17 07:08:19;;;;;;;9.43;2.30;;;;;;;16.52;57.57;101389.88;5072071;28;20032;-69
2022/09/17 07:10:45;;;;;;;5.68;1.13;;;;;;;16.85;56.85;101399.81;5054096;28;20098;-70
2022/09/17 07:13:10;;;;;;;14.32;1.55;;;;;;;16.69;57.86;101387.94;5072409;28;20432;-72
2022/09/17 07:15:35;;;;;;;9.27;1.95;;;;;;;16.55;58.33;101397.50;5072002;28;20502;-73
2022/09/17 07:18:10;;;;;;;6.85;1.20;;;;;;;16.63;56.86;101390.81;5072023;28;20044;-71
2022/09/17 07:20:36;;;;;;;6.57;0.63;;;;;;;16.53;57.00;101393.41;5053669;28;20508;-72
2022/09/17 07:23:02;;;;;;;8.57;2.30;;;;;;;16.73;55.89;101382.81;5053533;28;20123;-71
2022/09/17 07:25:27;;;;;;;6.80;1.10;;;;;;;16.99;56.37;101382.06;5072363;28;20028;-71
2022/09/17 07:27:53;;;;;;;3.78;0.90;;;;;;;17.16;54.53;101379.28;5071879;28;20041;-71
2022/09/17 07:30:19;;;;;;;3.13;0.90;;;;;;;17.17;53.64;101389.88;5064817;28;20060;-71
2022/09/17 07:32:45;;;;;;;8.35;0.85;;;;;;;17.17;55.68;101389.88;5052153;28;20033;-70
2022/09/17 07:35:11;;;;;;;4.68;1.00;;;;;;;17.40;52.98;101395.00;5051902;28;20040;-69
2022/09/17 07:37:36;;;;;;;8.57;1.23;;;;;;;17.37;53.80;101383.81;5051436;28;20087;-72
2022/09/17 07:40:05;;;;;;;13.77;2.67;;;;;;;16.97;54.71;101403.22;5051195;28;20037;-71
2022/09/17 07:42:31;;;;;;;7.15;0.68;;;;;;;17.31;53.93;101401.16;5051461;28;20029;-71
2022/09/17 07:44:57;;;;;;;10.00;1.73;;;;;;;16.96;54.89;101417.03;5052426;28;20128;-73
2022/09/17 07:47:22;;;;;;;10.75;1.33;;;;;;;16.38;55.29;101399.41;5058606;28;20171;-73
2022/09/17 07:49:48;;;;;;;7.43;0.98;;;;;;;16.18;55.81;101409.13;5058163;28;20102;-72
2022/09/17 07:52:13;;;;;;;5.75;1.42;;;;;;;16.16;56.42;101411.28;5057609;28;20142;-73
2022/09/17 07:54:39;;;;;;;7.60;1.55;;;;;;;16.73;54.88;101404.53;5050413;28;20049;-71
2022/09/17 07:57:04;;;;;;;2.80;0.80;;;;;;;16.66;54.60;101409.34;5038176;28;20030;-70
2022/09/17 07:59:30;;;;;;;9.23;1.08;;;;;;;17.17;53.25;101413.50;5037948;28;20088;-73
2022/09/17 08:01:55;;;;;;;5.30;1.42;;;;;;;16.76;54.90;101406.75;5037733;28;20473;-71
2022/09/17 08:04:21;;;;;;;3.60;0.88;;;;;;;17.00;54.10;101396.47;5038038;28;20103;-72
2022/09/17 08:06:49;;;;;;;3.08;0.70;;;;;;;17.81;52.66;101404.38;5054592;28;20032;-71
2022/09/17 08:09:16;;;;;;;2.50;0.88;;;;;;;18.35;50.92;101402.34;5057866;28;20064;-72
2022/09/17 08:11:42;;;;;;;6.13;0.93;;;;;;;18.28;51.53;101388.94;5056745;28;20040;-72
2022/09/17 08:14:12;;;;;;;6.13;1.75;;;;;;;17.77;50.07;101407.88;5057693;28;20025;-71
2022/09/17 08:16:38;;;;;;;5.50;0.98;;;;;;;18.11;50.86;101407.34;5058112;28;20035;-70
2022/09/17 08:19:04;;;;;;;3.90;0.95;;;;;;;18.47;49.53;101405.72;5057359;28;20458;-72
2022/09/17 08:21:29;;;;;;;13.73;1.35;;;;;;;17.95;50.76;101427.34;5057336;28;20120;-74
2022/09/17 08:23:55;;;;;;;7.10;1.02;;;;;;;16.54;56.47;101424.91;5057463;28;20033;-73
2022/09/17 08:26:22;;;;;;;4.47;1.33;;;;;;;16.58;57.58;101415.19;5057381;28;20044;-73
2022/09/17 08:28:50;;;;;;;2.35;0.60;;;;;;;16.60;57.48;101418.47;5058389;28;20025;-71
2022/09/17 08:31:17;;;;;;;4.05;0.55;;;;;;;16.22;59.63;101407.56;5069208;28;20032;-72
2022/09/17 08:33:44;;;;;;;6.43;1.83;;;;;;;16.44;59.43;101409.28;5077623;28;20058;-71
2022/09/17 08:36:11;;;;;;;1.92;0.60;;;;;;;16.31;59.17;101412.31;5067313;28;20621;-72
2022/09/17 08:38:38;;;;;;;4.40;0.88;;;;;;;16.73;59.18;101411.88;5062725;28;20074;-72
2022/09/17 08:41:11;;;;;;;2.33;0.40;;;;;;;16.25;58.72;101417.94;5068626;28;20132;-71
2022/09/17 08:44:05;;;;;;;6.93;0.68;;;;;;;16.61;58.51;101422.81;5069150;28;20043;-71
2022/09/17 08:46:35;;;;;;;1.83;0.60;;;;;;;16.37;58.83;101427.59;5069845;28;20052;-72
2022/09/17 08:49:14;;;;;;;3.70;0.70;;;;;;;16.54;57.95;101431.16;5063993;28;20060;-71
2022/09/17 08:51:50;;;;;;;4.38;1.23;;;;;;;17.21;57.27;101425.47;5067575;28;20105;-70
2022/09/17 08:54:31;;;;;;;5.95;1.80;;;;;;;16.97;56.53;101426.81;5069685;28;20040;-70
2022/09/17 08:57:16;;;;;;;2.70;0.55;;;;;;;17.01;55.18;101423.34;5065094;28;20044;-69
2022/09/17 08:59:56;;;;;;;6.13;0.85;;;;;;;17.65;55.01;101421.63;5061697;28;20029;-70
2022/09/17 09:03:03;;;;;;;8.05;1.50;;;;;;;17.92;54.14;101424.31;5062950;28;20048;-70
2022/09/17 09:05:47;;;;;;;5.10;0.57;;;;;;;18.28;53.66;101437.94;5064674;28;20044;-73
2022/09/17 09:08:30;;;;;;;6.05;1.08;;;;;;;18.70;51.15;101424.34;5062395;28;20033;-71
2022/09/17 09:10:58;;;;;;;4.22;0.60;;;;;;;18.53;53.32;101436.50;5062852;28;20366;-72
2022/09/17 09:13:27;;;;;;;8.68;0.73;;;;;;;18.23;52.17;101437.91;5060849;28;20032;-73
2022/09/17 09:15:57;;;;;;;11.15;0.88;;;;;;;17.93;53.76;101434.09;5060763;28;20574;-71
2022/09/17 09:18:27;;;;;;;8.45;2.50;;;;;;;17.92;53.80;101441.47;5066974;28;20044;-72
2022/09/17 09:21:04;;;;;;;4.28;0.80;;;;;;;17.76;55.87;101427.97;5058070;28;20029;-72
2022/09/17 09:23:47;;;;;;;2.60;0.65;;;;;;;17.61;54.35;101446.88;5064471;28;20041;-72
2022/09/17 09:26:18;;;;;;;5.70;0.80;;;;;;;17.67;53.41;101443.94;5061301;28;20515;-72
2022/09/17 09:29:04;;;;;;;2.20;0.57;;;;;;;17.35;54.28;101452.00;5067663;28;20036;-72
2022/09/17 09:32:09;;;;;;;4.45;0.88;;;;;;;17.10;54.49;101464.47;5044742;28;20056;-72
2022/09/17 09:34:36;;;;;;;8.52;1.05;;;;;;;17.79;54.80;101441.88;5062776;28;20037;-71
2022/09/17 09:37:24;;;;;;;3.88;0.52;;;;;;;17.57;54.06;101451.19;5043931;28;20029;-70
2022/09/17 09:39:52;;;;;;;4.75;0.65;;;;;;;16.74;54.83;101463.19;5061058;28;20071;-71
2022/09/17 09:42:20;;;;;;;11.40;1.50;;;;;;;17.29;54.88;101465.78;5062577;28;20044;-73
2022/09/17 09:44:46;;;;;;;5.05;1.50;;;;;;;18.67;51.77;101437.66;5064689;28;20037;-73
2022/09/17 09:47:37;;;;;;;4.35;0.75;;;;;;;17.50;54.08;101435.06;5062074;28;23266;-73
2022/09/17 09:50:02;;;;;;;5.57;0.75;;;;;;;18.14;53.14;101444.88;5065908;28;20019;-72
2022/09/17 09:52:57;;;;;;;7.13;1.00;;;;;;;17.33;54.67;101450.63;5062208;28;20539;-76
2022/09/17 09:55:49;;;;;;;9.65;1.02;;;;;;;17.88;53.75;101429.47;5067895;28;20036;-74
2022/09/17 09:58:35;;;;;;;8.48;1.15;;;;;;;18.07;53.00;101430.69;5060959;28;20039;-72
2022/09/17 10:01:02;;;;;;;3.33;0.70;;;;;;;18.59;54.24;101424.56;5062045;28;20037;-73
2022/09/17 10:03:34;;;;;;;7.28;1.08;;;;;;;18.69;51.46;101416.44;5063933;28;20081;-73
2022/09/17 10:06:08;;;;;;;4.80;0.95;;;;;;;18.39;52.63;101431.50;5059904;28;20064;-73
2022/09/17 10:08:37;;;;;;;4.15;1.17;;;;;;;18.13;52.17;101413.34;5062009;28;20098;-73
2022/09/17 10:11:04;;;;;;;1.92;0.68;;;;;;;18.66;51.21;101425.94;5065894;28;20024;-73
2022/09/17 10:13:34;;;;;;;5.65;1.13;;;;;;;18.69;52.62;101411.78;5065491;28;20072;-73
2022/09/17 10:16:15;;;;;;;18.60;1.35;;;;;;;17.84;51.03;101419.34;5063687;28;20036;-72
2022/09/17 10:18:41;;;;;;;3.15;0.70;;;;;;;18.18;52.39;101428.88;5060772;28;20370;-73
2022/09/17 10:21:18;;;;;;;6.28;0.98;;;;;;;18.42;50.64;101414.66;5065616;28;20040;-75
2022/09/17 10:23:44;;;;;;;8.00;1.42;;;;;;;18.39;51.76;101417.88;5065768;28;20576;-74
2022/09/17 10:26:35;;;;;;;6.85;0.90;;;;;;;18.55;51.08;101427.00;5063792;28;20041;-74
2022/09/17 10:29:17;;;;;;;3.30;0.70;;;;;;;17.43;55.30;101445.31;5047696;28;20051;-77
2022/09/17 10:31:50;;;;;;;6.43;1.65;;;;;;;16.59;59.38;101439.34;5060940;28;20283;-75
2022/09/17 10:34:26;;;;;;;6.07;1.17;;;;;;;16.80;59.10;101431.50;5064390;28;20504;-71
2022/09/17 10:36:52;;;;;;;6.18;0.80;;;;;;;16.21;61.41;101435.78;5061801;28;20068;-72
2022/09/17 10:39:43;;;;;;;6.30;1.02;;;;;;;16.09;61.59;101427.72;5064580;28;20111;-73
2022/09/17 10:42:16;;;;;;;8.75;1.30;;;;;;;16.26;60.27;101414.97;5062261;28;20033;-72
2022/09/17 10:44:50;;;;;;;8.65;1.73;;;;;;;16.60;59.18;101413.88;5067166;28;20044;-72
2022/09/17 10:47:34;;;;;;;11.30;1.30;;;;;;;16.24;60.61;101417.09;5069286;28;20055;-73
2022/09/17 10:50:04;;;;;;;17.73;1.75;;;;;;;16.65;60.28;101415.81;5042751;28;20500;-73
2022/09/17 10:52:34;;;;;;;4.22;1.15;;;;;;;16.61;60.00;101418.22;5059642;28;20033;-72
2022/09/17 10:55:24;;;;;;;10.73;1.83;;;;;;;17.20;59.78;101411.06;5061731;28;20043;-72
2022/09/17 10:58:08;;;;;;;8.13;1.60;;;;;;;17.35;59.36;101405.00;5060342;28;20037;-73
2022/09/17 11:00:52;;;;;;;6.97;0.80;;;;;;;17.05;59.34;101408.19;5058659;28;20042;-72
2022/09/17 11:03:42;;;;;;;9.50;2.50;;;;;;;17.72;58.17;101392.34;5066362;28;20037;-71
2022/09/17 11:06:32;;;;;;;4.13;0.90;;;;;;;17.68;58.68;101382.22;5066415;28;20131;-71
2022/09/17 11:09:08;;;;;;;6.63;1.65;;;;;;;17.95;57.92;101388.44;5058731;28;20029;-71
2022/09/17 11:11:39;;;;;;;8.45;1.10;;;;;;;17.84;57.43;101392.16;5058722;28;20115;-72
2022/09/17 11:14:41;;;;;;;8.10;1.45;;;;;;;18.45;56.38;101377.09;5057561;28;20543;-72
2022/09/17 11:17:19;;;;;;;7.53;1.20;;;;;;;18.96;53.31;101377.06;5039167;28;20446;-70
2022/09/17 11:19:56;;;;;;;9.65;1.10;;;;;;;18.64;52.87;101381.84;5059852;28;20024;-72
2022/09/17 11:22:37;;;;;;;7.07;1.58;;;;;;;18.73;52.63;101371.25;5063697;28;20570;-72
2022/09/17 11:25:27;;;;;;;5.47;1.20;;;;;;;19.10;51.21;101382.84;5056949;28;20044;-71
2022/09/17 11:28:17;;;;;;;12.63;1.63;;;;;;;19.19;52.89;101376.59;5039917;28;20041;-72
2022/09/17 11:31:04;;;;;;;5.25;0.73;;;;;;;18.20;51.84;101380.47;5060223;28;20462;-75
2022/09/17 11:33:39;;;;;;;6.35;1.33;;;;;;;18.50;52.07;101374.41;5060746;28;20028;-73
2022/09/17 11:36:13;;;;;;;4.35;0.85;;;;;;;18.76;49.64;101376.16;5063223;28;20059;-73
2022/09/17 11:38:43;;;;;;;6.03;1.20;;;;;;;18.29;50.98;101387.06;5059711;28;20029;-75